createdAt,value
2022-12-25T00:00:55.443Z,7.50
2022-12-25T00:03:22.989Z,7.50
2022-12-25T00:05:49.866Z,7.50
2022-12-25T00:08:16.695Z,7.50
2022-12-25T00:10:45.507Z,7.40
2022-12-25T00:13:12.770Z,7.50
2022-12-25T00:15:41.740Z,7.40
2022-12-25T00:18:08.924Z,7.40
2022-12-25T00:20:36.098Z,7.40
2022-12-25T00:23:02.887Z,7.40
2022-12-25T00:25:29.856Z,7.40
2022-12-25T00:27:56.792Z,7.40
2022-12-25T00:30:23.608Z,7.40
2022-12-25T00:32:50.411Z,7.40
2022-12-25T00:35:17.372Z,7.40
2022-12-25T00:37:44.168Z,7.40
2022-12-25T00:40:11.268Z,7.30
2022-12-25T00:42:38.130Z,7.30
2022-12-25T00:45:05.977Z,7.30
2022-12-25T00:47:35.777Z,7.30
2022-12-25T00:50:02.576Z,7.20
2022-12-25T00:52:29.361Z,7.10
2022-12-25T00:54:56.148Z,7.10
2022-12-25T00:57:23.030Z,7.10
2022-12-25T00:59:49.820Z,7.10
2022-12-25T01:02:26.140Z,7.10
2022-12-25T01:04:55.521Z,7.00
2022-12-25T01:07:24.411Z,7.00
2022-12-25T01:10:10.025Z,7.00
2022-12-25T01:12:40.015Z,7.00
2022-12-25T01:15:08.471Z,7.00
2022-12-25T01:17:35.753Z,6.90
2022-12-25T01:20:03.159Z,7.00
2022-12-25T01:22:29.990Z,7.00
2022-12-25T01:24:56.835Z,7.00
2022-12-25T01:27:23.647Z,6.90
2022-12-25T01:29:50.523Z,6.90
2022-12-25T01:32:17.301Z,7.00
2022-12-25T01:34:44.130Z,6.90
2022-12-25T01:37:11.231Z,6.80
2022-12-25T01:39:38.179Z,6.80
2022-12-25T01:42:05.103Z,6.70
2022-12-25T01:44:37.871Z,6.70
2022-12-25T01:47:05.806Z,6.60
2022-12-25T01:49:36.352Z,6.50
2022-12-25T01:52:10.814Z,6.50
2022-12-25T01:54:43.480Z,6.40
2022-12-25T01:57:16.481Z,6.40
2022-12-25T01:59:43.543Z,6.40
2022-12-25T02:02:11.134Z,6.40
2022-12-25T02:04:45.906Z,6.40
2022-12-25T02:07:19.115Z,6.50
2022-12-25T02:09:47.040Z,6.40
2022-12-25T02:12:32.313Z,6.50
2022-12-25T02:15:06.149Z,6.60
2022-12-25T02:17:58.533Z,6.60
2022-12-25T02:20:28.472Z,6.60
2022-12-25T02:23:10.147Z,6.60
2022-12-25T02:25:58.002Z,6.60
2022-12-25T02:28:47.661Z,6.60
2022-12-25T02:31:22.149Z,6.60
2022-12-25T02:34:07.594Z,6.50
2022-12-25T02:36:50.021Z,6.50
2022-12-25T02:39:59.363Z,6.50
2022-12-25T02:43:19.088Z,6.50
2022-12-25T02:46:10.249Z,6.50
2022-12-25T02:49:03.109Z,6.50
2022-12-25T02:51:52.660Z,6.50
2022-12-25T02:54:44.656Z,6.50
2022-12-25T02:57:33.042Z,6.60
2022-12-25T03:00:20.830Z,6.50
2022-12-25T03:03:07.468Z,6.60
2022-12-25T03:05:57.113Z,6.90
2022-12-25T03:08:29.305Z,6.60
2022-12-25T03:11:21.579Z,6.60
2022-12-25T03:13:54.081Z,6.60
2022-12-25T03:16:40.424Z,6.70
2022-12-25T03:19:28.618Z,6.60
2022-12-25T03:22:15.102Z,6.60
2022-12-25T03:25:00.467Z,6.50
2022-12-25T03:27:31.939Z,6.40
2022-12-25T03:30:19.181Z,6.30
2022-12-25T03:32:58.633Z,6.20
2022-12-25T03:35:46.504Z,6.10
2022-12-25T03:38:34.008Z,6.10
2022-12-25T03:41:19.502Z,6.10
2022-12-25T03:44:31.547Z,6.20
2022-12-25T03:47:37.211Z,6.20
2022-12-25T03:50:31.675Z,6.20
2022-12-25T03:53:21.602Z,6.30
2022-12-25T03:56:08.389Z,6.20
2022-12-25T03:58:53.899Z,6.20
2022-12-25T04:01:39.587Z,6.10
2022-12-25T04:04:24.705Z,6.20
2022-12-25T04:07:10.034Z,6.20
2022-12-25T04:09:55.378Z,6.30
2022-12-25T04:12:40.774Z,6.30
2022-12-25T04:15:26.804Z,6.30
2022-12-25T04:18:12.338Z,6.30
2022-12-25T04:20:57.799Z,6.30
2022-12-25T04:23:43.002Z,6.30
2022-12-25T04:26:28.277Z,6.20
2022-12-25T04:29:13.702Z,6.30
2022-12-25T04:31:59.214Z,6.30
2022-12-25T04:34:44.487Z,6.30
2022-12-25T04:37:11.669Z,6.30
2022-12-25T04:39:38.511Z,6.40
2022-12-25T04:42:06.228Z,6.30
2022-12-25T04:44:33.076Z,6.40
2022-12-25T04:46:59.949Z,6.30
2022-12-25T04:49:27.059Z,6.30
2022-12-25T04:51:53.912Z,6.30
2022-12-25T04:54:20.808Z,6.30
2022-12-25T04:56:47.697Z,6.30
2022-12-25T04:59:14.533Z,6.30
2022-12-25T05:01:41.534Z,6.30
2022-12-25T05:04:08.759Z,6.30
2022-12-25T05:06:35.794Z,6.40
2022-12-25T05:09:02.804Z,6.40
2022-12-25T05:11:29.645Z,6.30
2022-12-25T05:13:57.866Z,6.40
2022-12-25T05:16:25.283Z,6.40
2022-12-25T05:18:52.677Z,6.40
2022-12-25T05:21:20.295Z,6.40
2022-12-25T05:23:50.852Z,6.40
2022-12-25T05:26:20.499Z,6.30
2022-12-25T05:28:47.782Z,6.30
2022-12-25T05:31:15.065Z,6.30
2022-12-25T05:33:42.118Z,6.20
2022-12-25T05:36:10.705Z,6.10
2022-12-25T05:38:37.796Z,6.10
2022-12-25T05:41:05.164Z,6.10
2022-12-25T05:43:32.031Z,6.10
2022-12-25T05:46:03.713Z,6.10
2022-12-25T05:48:30.492Z,6.10
2022-12-25T05:50:57.320Z,6.10
2022-12-25T05:53:24.143Z,6.10
2022-12-25T05:55:51.112Z,6.10
2022-12-25T05:58:17.998Z,6.10
2022-12-25T06:00:44.924Z,6.10
2022-12-25T06:03:11.849Z,6.10
2022-12-25T06:05:39.775Z,6.10
2022-12-25T06:08:06.621Z,6.00
2022-12-25T06:10:33.495Z,6.00
2022-12-25T06:13:01.001Z,6.00
2022-12-25T06:15:27.790Z,6.10
2022-12-25T06:17:54.698Z,6.00
2022-12-25T06:20:21.713Z,6.00
2022-12-25T06:22:48.527Z,5.90
2022-12-25T06:25:15.679Z,5.90
2022-12-25T06:27:42.737Z,5.80
2022-12-25T06:30:10.058Z,5.80
2022-12-25T06:32:36.968Z,5.80
2022-12-25T06:35:04.166Z,5.80
2022-12-25T06:37:32.228Z,5.80
2022-12-25T06:39:59.082Z,5.80
2022-12-25T06:42:25.829Z,5.80
2022-12-25T06:44:53.293Z,5.80
2022-12-25T06:47:20.223Z,5.80
2022-12-25T06:49:47.176Z,5.80
2022-12-25T06:52:14.023Z,5.80
2022-12-25T06:54:40.852Z,5.80
2022-12-25T06:57:07.733Z,5.80
2022-12-25T06:59:34.589Z,5.80
2022-12-25T07:02:01.551Z,5.80
2022-12-25T07:04:40.692Z,5.80
2022-12-25T07:07:09.647Z,5.90
2022-12-25T07:09:39.001Z,5.90
2022-12-25T07:12:18.365Z,5.90
2022-12-25T07:14:48.844Z,5.80
2022-12-25T07:17:20.180Z,5.80
2022-12-25T07:19:47.707Z,5.80
2022-12-25T07:22:16.001Z,5.70
2022-12-25T07:24:42.944Z,5.70
2022-12-25T07:27:09.881Z,5.70
2022-12-25T07:29:36.726Z,5.60
2022-12-25T07:32:03.893Z,5.70
2022-12-25T07:34:30.745Z,5.60
2022-12-25T07:36:57.603Z,5.60
2022-12-25T07:39:24.410Z,5.60
2022-12-25T07:41:51.678Z,5.60
2022-12-25T07:44:18.671Z,5.60
2022-12-25T07:46:45.939Z,5.70
2022-12-25T07:49:13.070Z,5.90
2022-12-25T07:51:40.057Z,6.00
2022-12-25T07:54:06.868Z,6.10
2022-12-25T07:56:33.727Z,6.10
2022-12-25T07:59:00.552Z,6.10
2022-12-25T08:01:28.088Z,6.20
2022-12-25T08:03:57.732Z,6.20
2022-12-25T08:06:30.127Z,6.30
2022-12-25T08:09:08.784Z,6.40
2022-12-25T08:11:36.164Z,6.40
2022-12-25T08:14:06.875Z,6.50
2022-12-25T08:16:34.424Z,6.60
2022-12-25T08:19:01.957Z,6.80
2022-12-25T08:21:28.849Z,7.10
2022-12-25T08:23:55.797Z,7.40
2022-12-25T08:26:23.431Z,7.50
2022-12-25T08:28:50.821Z,7.90
2022-12-25T08:31:17.704Z,8.60
2022-12-25T08:33:45.231Z,8.90
2022-12-25T08:36:13.238Z,9.60
2022-12-25T08:38:41.338Z,10.00
2022-12-25T08:41:09.369Z,10.60
2022-12-25T08:43:36.345Z,10.70
2022-12-25T08:46:03.237Z,10.60
2022-12-25T08:48:30.157Z,9.90
2022-12-25T08:50:57.005Z,9.60
2022-12-25T08:53:24.158Z,9.70
2022-12-25T08:55:58.152Z,9.60
2022-12-25T08:58:25.624Z,9.20
2022-12-25T09:00:52.543Z,8.90
2022-12-25T09:03:19.589Z,8.80
2022-12-25T09:05:46.953Z,8.70
2022-12-25T09:08:13.835Z,8.80
2022-12-25T09:10:41.045Z,8.80
2022-12-25T09:13:08.231Z,9.30
2022-12-25T09:15:35.133Z,9.80
2022-12-25T09:18:02.005Z,10.00
2022-12-25T09:20:29.659Z,9.70
2022-12-25T09:22:56.465Z,9.80
2022-12-25T09:25:23.316Z,9.90
2022-12-25T09:27:50.145Z,10.00
2022-12-25T09:30:17.282Z,10.00
2022-12-25T09:32:44.231Z,9.90
2022-12-25T09:35:11.215Z,10.30
2022-12-25T09:37:38.146Z,11.40
2022-12-25T09:40:05.585Z,12.80
2022-12-25T09:42:34.496Z,13.40
2022-12-25T09:45:03.412Z,13.50
2022-12-25T09:47:36.735Z,13.50
2022-12-25T09:50:07.052Z,13.10
2022-12-25T09:52:54.839Z,12.80
2022-12-25T09:55:24.744Z,13.50
2022-12-25T09:57:59.870Z,14.10
2022-12-25T10:00:36.088Z,14.60
2022-12-25T10:03:31.853Z,15.10
2022-12-25T10:06:43.958Z,15.30
2022-12-25T10:09:58.462Z,14.30
2022-12-25T10:12:42.924Z,14.40
2022-12-25T10:15:36.684Z,13.90
2022-12-25T10:18:35.578Z,14.20
2022-12-25T10:21:11.045Z,14.30
2022-12-25T10:23:45.756Z,14.40
2022-12-25T10:26:22.683Z,15.00
2022-12-25T10:29:09.704Z,15.30
2022-12-25T10:31:39.908Z,13.80
2022-12-25T10:34:09.456Z,15.00
2022-12-25T10:36:36.437Z,14.80
2022-12-25T10:39:03.569Z,14.70
2022-12-25T10:41:36.211Z,14.60
2022-12-25T10:44:20.234Z,14.70
2022-12-25T10:46:58.082Z,14.10
2022-12-25T10:49:31.097Z,15.20
2022-12-25T10:51:58.343Z,14.20
2022-12-25T10:54:28.653Z,14.30
2022-12-25T10:57:13.251Z,14.90
2022-12-25T10:59:46.342Z,14.60
2022-12-25T11:02:25.913Z,15.50
2022-12-25T11:05:10.345Z,14.70
2022-12-25T11:07:51.487Z,15.60
2022-12-25T11:10:42.291Z,14.70
2022-12-25T11:13:20.729Z,14.50
2022-12-25T11:16:03.577Z,14.80
2022-12-25T11:18:35.725Z,15.00
2022-12-25T11:21:19.028Z,15.40
2022-12-25T11:23:55.760Z,15.50
2022-12-25T11:26:22.695Z,15.30
2022-12-25T11:28:51.765Z,14.80
2022-12-25T11:31:21.426Z,15.20
2022-12-25T11:33:51.347Z,15.00
2022-12-25T11:36:29.897Z,15.60
2022-12-25T11:39:01.442Z,15.50
2022-12-25T11:41:32.974Z,15.20
2022-12-25T11:44:05.062Z,15.90
2022-12-25T11:46:41.271Z,16.50
2022-12-25T11:49:14.598Z,16.80
2022-12-25T11:51:44.836Z,16.50
2022-12-25T11:54:30.175Z,16.40
2022-12-25T11:57:00.625Z,16.60
2022-12-25T11:59:37.746Z,16.80
2022-12-25T12:02:38.261Z,15.40
2022-12-25T12:05:16.428Z,15.60
2022-12-25T12:07:59.446Z,15.20
2022-12-25T12:10:26.305Z,15.40
2022-12-25T12:13:11.564Z,15.90
2022-12-25T12:15:49.930Z,16.40
2022-12-25T12:18:26.877Z,15.70
2022-12-25T12:21:10.323Z,16.20
2022-12-25T12:23:57.292Z,16.30
2022-12-25T12:26:26.855Z,16.10
2022-12-25T12:28:57.779Z,16.70
2022-12-25T12:31:36.508Z,16.20
2022-12-25T12:34:04.029Z,15.50
2022-12-25T12:36:36.148Z,14.20
2022-12-25T12:39:05.272Z,14.60
2022-12-25T12:41:46.481Z,13.90
2022-12-25T12:44:15.993Z,13.00
2022-12-25T12:46:55.851Z,12.90
2022-12-25T12:49:32.845Z,12.50
2022-12-25T12:52:24.954Z,12.10
2022-12-25T12:55:07.508Z,12.10
2022-12-25T12:57:39.973Z,12.50
2022-12-25T13:00:31.393Z,12.60
2022-12-25T13:03:16.596Z,12.60
2022-12-25T13:06:27.213Z,12.20
2022-12-25T13:09:26.543Z,12.40
2022-12-25T13:11:53.445Z,12.40
2022-12-25T13:14:22.929Z,12.30
2022-12-25T13:16:53.476Z,12.20
2022-12-25T13:19:26.375Z,12.20
2022-12-25T13:21:54.354Z,11.90
2022-12-25T13:24:30.106Z,12.00
2022-12-25T13:26:57.456Z,11.90
2022-12-25T13:29:36.201Z,12.00
2022-12-25T13:32:06.035Z,11.90
2022-12-25T13:34:41.835Z,11.90
2022-12-25T13:37:16.542Z,11.90
2022-12-25T13:40:05.006Z,11.90
2022-12-25T13:42:36.309Z,12.00
2022-12-25T13:45:28.820Z,12.10
2022-12-25T13:47:56.349Z,12.30
2022-12-25T13:50:30.954Z,12.10
2022-12-25T13:53:10.204Z,11.90
2022-12-25T13:55:37.220Z,11.70
2022-12-25T13:58:07.041Z,11.60
2022-12-25T14:00:38.225Z,11.70
2022-12-25T14:03:15.258Z,11.60
2022-12-25T14:05:43.746Z,11.50
2022-12-25T14:08:26.586Z,11.50
2022-12-25T14:10:55.157Z,11.50
2022-12-25T14:13:26.390Z,11.40
2022-12-25T14:15:54.761Z,11.30
2022-12-25T14:18:23.443Z,11.30
2022-12-25T14:20:56.541Z,11.40
2022-12-25T14:23:23.614Z,11.30
2022-12-25T14:25:50.885Z,11.30
2022-12-25T14:28:21.818Z,11.60
2022-12-25T14:30:49.015Z,11.70
2022-12-25T14:33:19.528Z,11.40
2022-12-25T14:35:47.934Z,11.10
2022-12-25T14:38:29.271Z,10.90
2022-12-25T14:41:24.254Z,10.80
2022-12-25T14:43:55.881Z,10.70
2022-12-25T14:46:25.234Z,10.50
2022-12-25T14:49:10.097Z,10.50
2022-12-25T14:51:39.138Z,10.50
2022-12-25T14:54:17.812Z,10.40
2022-12-25T14:56:50.275Z,10.30
2022-12-25T14:59:25.307Z,10.20
2022-12-25T15:01:58.635Z,10.20
2022-12-25T15:04:27.246Z,10.10
2022-12-25T15:07:00.967Z,10.10
2022-12-25T15:09:30.248Z,10.00
2022-12-25T15:11:57.377Z,9.90
2022-12-25T15:14:25.554Z,9.90
2022-12-25T15:16:58.517Z,9.80
2022-12-25T15:19:36.672Z,9.70
2022-12-25T15:22:04.725Z,9.60
2022-12-25T15:24:32.367Z,9.50
2022-12-25T15:27:00.753Z,9.50
2022-12-25T15:30:00.206Z,9.40
2022-12-25T15:32:20.770Z,9.30
2022-12-25T15:34:49.856Z,9.20
2022-12-25T15:37:18.257Z,9.20
2022-12-25T15:39:45.802Z,9.20
2022-12-25T15:42:14.632Z,9.20
2022-12-25T15:44:42.939Z,9.10
2022-12-25T15:47:11.937Z,9.00
2022-12-25T15:49:38.984Z,9.00
2022-12-25T15:52:10.352Z,9.00
2022-12-25T15:54:37.320Z,9.00
2022-12-25T15:57:07.554Z,8.90
2022-12-25T15:59:34.563Z,8.90
2022-12-25T16:02:02.192Z,8.80
2022-12-25T16:04:31.529Z,8.80
2022-12-25T16:06:59.547Z,8.70
2022-12-25T16:09:27.673Z,8.60
2022-12-25T16:11:54.618Z,8.60
2022-12-25T16:14:21.928Z,8.40
2022-12-25T16:16:48.892Z,8.40
2022-12-25T16:19:15.829Z,8.30
2022-12-25T16:21:45.692Z,8.30
2022-12-25T16:24:14.040Z,8.20
2022-12-25T16:26:40.946Z,8.20
2022-12-25T16:29:10.628Z,8.20
2022-12-25T16:31:38.590Z,8.30
2022-12-25T16:34:07.447Z,8.20
2022-12-25T16:36:35.202Z,8.20
2022-12-25T16:39:02.999Z,8.20
2022-12-25T16:41:29.893Z,8.00
2022-12-25T16:43:56.739Z,8.00
2022-12-25T16:46:23.778Z,8.10
2022-12-25T16:48:50.930Z,8.10
2022-12-25T16:51:20.818Z,8.10
2022-12-25T16:53:48.173Z,8.10
2022-12-25T16:56:17.976Z,8.00
2022-12-25T16:58:46.858Z,7.90
2022-12-25T17:01:17.171Z,8.00
2022-12-25T17:03:45.199Z,8.00
2022-12-25T17:06:17.406Z,7.90
2022-12-25T17:08:44.532Z,7.90
2022-12-25T17:11:11.910Z,7.80
2022-12-25T17:13:38.837Z,7.80
2022-12-25T17:16:20.349Z,7.70
2022-12-25T17:18:47.624Z,7.70
2022-12-25T17:21:17.182Z,7.60
2022-12-25T17:23:45.239Z,7.60
2022-12-25T17:26:12.397Z,7.60
2022-12-25T17:28:39.312Z,7.60
2022-12-25T17:31:08.625Z,7.50
2022-12-25T17:33:37.212Z,7.50
2022-12-25T17:36:10.925Z,7.50
2022-12-25T17:38:38.772Z,7.40
2022-12-25T17:41:08.557Z,7.30
2022-12-25T17:43:37.593Z,7.30
2022-12-25T17:46:22.912Z,7.40
2022-12-25T17:48:51.033Z,7.30
2022-12-25T17:51:21.865Z,7.30
2022-12-25T17:53:52.115Z,7.20
2022-12-25T17:56:19.847Z,7.10
2022-12-25T17:59:12.108Z,7.20
2022-12-25T18:01:40.018Z,7.00
2022-12-25T18:04:07.373Z,7.00
2022-12-25T18:06:35.842Z,6.80
2022-12-25T18:09:04.891Z,6.80
2022-12-25T18:11:33.214Z,6.80
2022-12-25T18:14:05.578Z,6.80
2022-12-25T18:16:35.980Z,6.70
2022-12-25T18:19:03.317Z,6.70
2022-12-25T18:21:30.478Z,6.70
2022-12-25T18:23:57.356Z,6.60
2022-12-25T18:26:26.001Z,6.60
2022-12-25T18:28:52.982Z,6.60
2022-12-25T18:31:23.060Z,6.60
2022-12-25T18:33:50.496Z,6.50
2022-12-25T18:36:23.958Z,6.80
2022-12-25T18:38:52.378Z,6.60
2022-12-25T18:41:20.747Z,6.50
2022-12-25T18:43:52.094Z,6.40
2022-12-25T18:46:24.690Z,6.40
2022-12-25T18:48:52.588Z,6.30
2022-12-25T18:51:19.855Z,6.30
2022-12-25T18:53:46.694Z,6.20
2022-12-25T18:56:17.492Z,6.30
2022-12-25T18:58:46.016Z,6.20
2022-12-25T19:01:18.724Z,6.10
2022-12-25T19:03:46.369Z,6.10
2022-12-25T19:06:21.455Z,6.00
2022-12-25T19:08:48.468Z,6.00
2022-12-25T19:11:16.210Z,5.90
2022-12-25T19:13:43.682Z,5.90
2022-12-25T19:16:11.141Z,5.90
2022-12-25T19:18:39.530Z,6.10
2022-12-25T19:21:08.874Z,6.00
2022-12-25T19:23:38.033Z,6.00
2022-12-25T19:26:06.961Z,5.90
2022-12-25T19:28:34.088Z,5.90
2022-12-25T19:31:01.836Z,5.80
2022-12-25T19:33:31.607Z,5.90
2022-12-25T19:36:12.063Z,5.90
2022-12-25T19:38:39.163Z,5.90
2022-12-25T19:41:14.680Z,6.00
2022-12-25T19:43:42.819Z,6.00
2022-12-25T19:46:22.052Z,6.00
2022-12-25T19:48:49.353Z,6.00
2022-12-25T19:51:20.379Z,6.00
2022-12-25T19:53:47.817Z,6.00
2022-12-25T19:56:15.698Z,6.00
2022-12-25T19:58:43.851Z,5.90
2022-12-25T20:01:17.339Z,5.90
2022-12-25T20:03:47.993Z,5.90
2022-12-25T20:06:24.981Z,5.80
2022-12-25T20:08:57.768Z,5.80
2022-12-25T20:11:27.370Z,5.70
2022-12-25T20:13:54.801Z,5.70
2022-12-25T20:16:22.189Z,5.70
2022-12-25T20:18:48.991Z,5.70
2022-12-25T20:21:18.665Z,5.70
2022-12-25T20:23:47.747Z,5.60
2022-12-25T20:26:16.577Z,5.70
2022-12-25T20:28:44.350Z,5.70
2022-12-25T20:31:19.978Z,5.70
2022-12-25T20:33:47.368Z,5.70
2022-12-25T20:36:15.139Z,5.70
2022-12-25T20:38:42.389Z,5.70
2022-12-25T20:41:29.013Z,5.80
2022-12-25T20:43:56.991Z,5.80
2022-12-25T20:46:25.486Z,5.80
2022-12-25T20:48:53.087Z,5.80
2022-12-25T20:51:23.168Z,5.90
2022-12-25T20:53:50.556Z,5.90
2022-12-25T20:56:19.772Z,5.90
2022-12-25T20:58:46.711Z,6.00
2022-12-25T21:01:16.300Z,6.00
2022-12-25T21:03:43.756Z,5.90
2022-12-25T21:06:11.565Z,5.90
2022-12-25T21:08:40.709Z,5.90
2022-12-25T21:11:08.452Z,5.80
2022-12-25T21:13:40.240Z,5.80
2022-12-25T21:16:11.211Z,5.70
2022-12-25T21:18:38.532Z,5.60
2022-12-25T21:21:07.762Z,5.60
2022-12-25T21:23:37.035Z,5.60
2022-12-25T21:26:18.491Z,5.50
2022-12-25T21:28:49.568Z,5.50
2022-12-25T21:31:17.479Z,5.40
2022-12-25T21:33:53.993Z,5.40
2022-12-25T21:36:30.110Z,5.30
2022-12-25T21:39:02.780Z,5.30
2022-12-25T21:41:31.517Z,5.30
2022-12-25T21:43:58.804Z,5.30
2022-12-25T21:46:26.809Z,5.20
2022-12-25T21:48:53.942Z,5.20
2022-12-25T21:51:47.758Z,5.20
2022-12-25T21:54:16.270Z,5.10
2022-12-25T21:56:45.596Z,5.10
2022-12-25T21:59:15.809Z,5.20
2022-12-25T22:01:43.651Z,5.10
2022-12-25T22:04:11.215Z,5.00
2022-12-25T22:06:56.615Z,5.00
2022-12-25T22:09:23.897Z,5.00
2022-12-25T22:12:09.181Z,5.00
2022-12-25T22:14:55.011Z,5.00
2022-12-25T22:17:56.148Z,4.90
2022-12-25T22:20:28.407Z,5.00
2022-12-25T22:22:55.361Z,5.00
2022-12-25T22:25:22.963Z,5.00
2022-12-25T22:27:50.683Z,4.90
2022-12-25T22:30:20.152Z,4.90
2022-12-25T22:32:47.535Z,4.90
2022-12-25T22:35:15.521Z,4.90
2022-12-25T22:37:43.408Z,4.90
2022-12-25T22:40:14.386Z,4.90
2022-12-25T22:42:41.733Z,4.90
2022-12-25T22:45:09.348Z,4.90
2022-12-25T22:47:36.204Z,4.90
2022-12-25T22:50:03.281Z,5.00
2022-12-25T22:52:30.124Z,4.90
2022-12-25T22:54:56.990Z,5.00
2022-12-25T22:57:23.838Z,5.00
2022-12-25T22:59:53.014Z,5.00
2022-12-25T23:02:20.379Z,5.00
2022-12-25T23:04:47.456Z,5.00
2022-12-25T23:07:15.160Z,5.00
2022-12-25T23:09:43.694Z,5.00
2022-12-25T23:12:30.635Z,5.00
2022-12-25T23:14:57.519Z,5.00
2022-12-25T23:17:42.933Z,4.90
2022-12-25T23:20:31.590Z,4.90
2022-12-25T23:23:17.206Z,4.90
2022-12-25T23:26:02.509Z,4.90
2022-12-25T23:28:47.969Z,4.90
2022-12-25T23:31:14.889Z,5.00
2022-12-25T23:33:41.701Z,5.00
2022-12-25T23:36:08.699Z,5.00
2022-12-25T23:38:35.550Z,5.00
2022-12-25T23:41:05.008Z,5.00
2022-12-25T23:43:31.834Z,5.00
2022-12-25T23:45:58.693Z,5.00
2022-12-25T23:48:25.563Z,5.10
2022-12-25T23:50:52.380Z,5.00
2022-12-25T23:53:19.188Z,5.00
2022-12-25T23:55:51.562Z,5.10
2022-12-25T23:58:21.940Z,5.00
